Terminal Aerodrome Forecast
Issued by NWS

Home | Current Version | Previous Version | Text Only | Print | Product List | Glossary On
Versions: 1 2 3 4 5 6 7 8 9 10 11 12 13 14 15 16
000
FTUS43 KFGF 211740
TAFDVL
TAF
KDVL 211740Z 2118/2218 VRB05KT P6SM SCT100
     FM212000 VRB03KT P6SM BKN100
     FM220100 30003KT P6SM OVC070
     FM220700 06005KT 1 1/2SM -SN BR OVC008
     FM221400 03015G22KT 1 1/2SM -SN BR OVC007=

USA.gov is the U.S. government's official web portal to all federal, state and local government web resources and services.